createdAt,value
2022-09-12T00:03:37.626Z,0.90
2022-09-12T00:06:39.782Z,1.00
2022-09-12T00:09:42.497Z,1.10
2022-09-12T00:12:45.033Z,0.88
2022-09-12T00:15:47.343Z,1.15
2022-09-12T00:18:50.376Z,1.00
2022-09-12T00:21:53.140Z,1.10
2022-09-12T00:24:55.927Z,1.30
2022-09-12T00:27:57.928Z,1.17
2022-09-12T00:31:00.649Z,1.42
2022-09-12T00:34:02.775Z,1.20
2022-09-12T00:37:05.848Z,1.17
2022-09-12T00:40:08.187Z,1.13
2022-09-12T00:43:37.160Z,1.33
2022-09-12T00:46:44.093Z,1.20
2022-09-12T00:49:46.493Z,0.90
2022-09-12T00:53:03.007Z,1.40
2022-09-12T00:56:06.607Z,1.40
2022-09-12T00:59:15.581Z,1.30
2022-09-12T01:02:18.731Z,1.10
2022-09-12T01:05:22.575Z,1.30
2022-09-12T01:08:27.608Z,1.30
2022-09-12T01:11:32.031Z,0.95
2022-09-12T01:14:35.562Z,1.15
2022-09-12T01:18:00.606Z,1.00
2022-09-12T01:21:25.893Z,1.38
2022-09-12T01:24:33.581Z,1.25
2022-09-12T01:27:44.612Z,1.00
2022-09-12T01:30:56.327Z,1.20
2022-09-12T01:34:17.973Z,1.00
2022-09-12T01:37:34.423Z,1.20
2022-09-12T01:40:59.460Z,1.27
2022-09-12T01:44:21.007Z,0.95
2022-09-12T01:47:29.076Z,1.13
2022-09-12T01:50:39.086Z,1.40
2022-09-12T01:53:46.887Z,1.38
2022-09-12T01:56:53.339Z,1.40
2022-09-12T02:00:00.607Z,1.45
2022-09-12T02:03:10.440Z,1.45
2022-09-12T02:06:23.780Z,1.20
2022-09-12T02:09:55.608Z,1.38
2022-09-12T02:13:03.858Z,1.65
2022-09-12T02:16:11.927Z,1.50
2022-09-12T02:19:24.258Z,1.58
2022-09-12T02:22:29.996Z,1.60
2022-09-12T02:25:36.898Z,1.38
2022-09-12T02:28:43.046Z,1.50
2022-09-12T02:31:47.643Z,1.38
2022-09-12T02:34:52.993Z,1.63
2022-09-12T02:38:15.814Z,1.40
2022-09-12T02:41:20.824Z,1.40
2022-09-12T02:44:25.532Z,1.40
2022-09-12T02:47:47.851Z,1.50
2022-09-12T02:50:50.429Z,1.20
2022-09-12T02:53:54.057Z,1.25
2022-09-12T02:56:56.420Z,1.40
2022-09-12T03:00:01.059Z,1.40
2022-09-12T03:03:43.580Z,1.38
2022-09-12T03:06:57.949Z,1.48
2022-09-12T03:13:49.269Z,1.48
2022-09-12T03:17:08.379Z,1.30
2022-09-12T03:20:16.113Z,1.50
2022-09-12T03:23:26.400Z,1.75
2022-09-12T03:26:36.602Z,1.35
2022-09-12T03:29:41.163Z,1.40
2022-09-12T03:35:49.360Z,1.73
2022-09-12T03:38:51.797Z,1.58
2022-09-12T03:41:55.188Z,1.70
2022-09-12T03:44:57.358Z,1.50
2022-09-12T03:47:59.961Z,1.80
2022-09-12T03:51:07.776Z,1.90
2022-09-12T03:54:11.742Z,1.83
2022-09-12T03:57:13.724Z,1.80
2022-09-12T04:00:19.854Z,2.28
2022-09-12T04:03:22.106Z,1.90
2022-09-12T04:06:24.580Z,1.70
2022-09-12T04:09:26.622Z,1.75
2022-09-12T04:12:30.084Z,1.63
2022-09-12T04:15:32.545Z,1.70
2022-09-12T04:18:35.584Z,1.98
2022-09-12T04:21:37.913Z,1.77
2022-09-12T04:24:40.714Z,2.03
2022-09-12T04:27:42.956Z,1.73
2022-09-12T04:30:46.044Z,1.75
2022-09-12T04:33:49.111Z,1.52
2022-09-12T04:36:51.710Z,1.50
2022-09-12T04:39:58.043Z,1.60
2022-09-12T04:43:00.597Z,1.77
2022-09-12T04:46:12.889Z,1.50
2022-09-12T04:49:19.586Z,1.58
2022-09-12T04:52:22.113Z,1.58
2022-09-12T04:55:25.730Z,1.58
2022-09-12T04:58:28.054Z,2.00
2022-09-12T05:01:31.412Z,1.50
2022-09-12T05:04:33.782Z,1.88
2022-09-12T05:07:36.288Z,1.70
2022-09-12T05:10:38.568Z,1.73
2022-09-12T05:13:41.299Z,1.60
2022-09-12T05:16:48.582Z,1.67
2022-09-12T05:19:51.620Z,1.50
2022-09-12T05:22:53.617Z,1.67
2022-09-12T05:25:57.919Z,1.70
2022-09-12T05:29:00.230Z,1.70
2022-09-12T05:32:04.126Z,2.38
2022-09-12T05:35:06.586Z,1.80
2022-09-12T05:38:09.647Z,1.85
2022-09-12T05:41:24.647Z,2.40
2022-09-12T05:44:28.515Z,2.33
2022-09-12T05:47:31.235Z,2.05
2022-09-12T05:50:34.926Z,2.60
2022-09-12T05:53:39.388Z,2.05
2022-09-12T05:56:44.144Z,2.20
2022-09-12T05:59:47.025Z,1.88
2022-09-12T06:02:56.391Z,2.13
2022-09-12T06:06:03.716Z,2.42
2022-09-12T06:09:07.514Z,1.83
2022-09-12T06:12:09.994Z,1.95
2022-09-12T06:15:12.451Z,2.25
2022-09-12T06:18:14.406Z,2.33
2022-09-12T06:21:17.124Z,2.67
2022-09-12T06:24:20.658Z,2.20
2022-09-12T06:27:22.914Z,2.25
2022-09-12T06:30:28.678Z,2.17
2022-09-12T06:33:34.166Z,2.08
2022-09-12T06:36:44.822Z,2.38
2022-09-12T06:39:49.023Z,2.20
2022-09-12T06:42:51.946Z,2.80
2022-09-12T06:46:09.859Z,2.70
2022-09-12T06:49:12.483Z,2.50
2022-09-12T06:52:15.954Z,2.70
2022-09-12T06:55:20.926Z,2.30
2022-09-12T06:58:26.266Z,2.30
2022-09-12T07:01:32.395Z,2.60
2022-09-12T07:04:36.933Z,2.25
2022-09-12T07:07:39.275Z,2.30
2022-09-12T07:10:42.134Z,2.70
2022-09-12T07:13:46.137Z,2.33
2022-09-12T07:19:50.629Z,2.30
2022-09-12T07:22:52.925Z,2.42
2022-09-12T07:26:00.586Z,2.47
2022-09-12T07:29:25.491Z,2.30
2022-09-12T07:32:25.152Z,2.40
2022-09-12T07:35:27.485Z,2.30
2022-09-12T07:38:29.589Z,2.00
2022-09-12T07:41:34.102Z,2.47
2022-09-12T07:44:36.207Z,2.13
2022-09-12T07:47:38.852Z,2.05
2022-09-12T07:50:44.568Z,2.08
2022-09-12T07:53:49.417Z,4.05
2022-09-12T07:56:52.115Z,2.40
2022-09-12T07:59:54.903Z,2.15
2022-09-12T08:02:57.850Z,2.75
2022-09-12T08:06:08.239Z,2.50
2022-09-12T08:09:12.915Z,2.30
2022-09-12T08:15:20.522Z,2.15
2022-09-12T08:18:23.338Z,2.15
2022-09-12T08:21:27.910Z,2.35
2022-09-12T08:24:30.422Z,2.33
2022-09-12T08:27:32.567Z,2.60
2022-09-12T08:30:34.866Z,2.17
2022-09-12T08:33:37.502Z,2.00
2022-09-12T08:36:41.148Z,1.90
2022-09-12T08:39:44.304Z,2.20
2022-09-12T08:43:10.479Z,2.10
2022-09-12T08:46:23.701Z,2.10
2022-09-12T08:49:57.766Z,1.90
2022-09-12T08:53:18.495Z,2.13
2022-09-12T08:56:21.551Z,1.92
2022-09-12T08:59:25.855Z,1.95
2022-09-12T09:02:37.477Z,3.03
2022-09-12T09:05:49.743Z,1.98
2022-09-12T09:09:07.345Z,2.17
2022-09-12T09:12:21.640Z,2.10
2022-09-12T09:18:35.245Z,2.03
2022-09-12T09:21:53.130Z,1.88
2022-09-12T09:25:01.711Z,1.70
2022-09-12T09:28:16.353Z,1.83
2022-09-12T09:31:24.723Z,2.17
2022-09-12T09:34:31.661Z,2.22
2022-09-12T09:37:43.963Z,2.30
2022-09-12T09:40:51.856Z,1.90
2022-09-12T09:43:53.947Z,1.67
2022-09-12T09:46:58.760Z,2.05
2022-09-12T09:50:01.218Z,1.70
2022-09-12T09:53:05.791Z,1.80
2022-09-12T09:56:23.305Z,2.00
2022-09-12T09:59:37.045Z,1.98
2022-09-12T10:02:42.922Z,1.90
2022-09-12T10:05:50.676Z,1.98
2022-09-12T10:09:05.451Z,2.10
2022-09-12T10:12:28.816Z,1.65
2022-09-12T10:15:30.824Z,1.88
2022-09-12T10:18:42.519Z,1.80
2022-09-12T10:21:52.783Z,1.80
2022-09-12T10:25:12.251Z,2.00
2022-09-12T10:28:26.840Z,1.77
2022-09-12T10:31:44.088Z,1.80
2022-09-12T10:34:46.597Z,2.03
2022-09-12T10:38:02.601Z,1.95
2022-09-12T10:41:09.733Z,2.25
2022-09-12T10:44:18.578Z,1.80
2022-09-12T10:47:31.594Z,1.90
2022-09-12T10:50:41.745Z,2.03
2022-09-12T10:53:47.226Z,2.17
2022-09-12T10:57:04.890Z,2.35
2022-09-12T11:00:17.913Z,2.05
2022-09-12T11:03:50.573Z,2.10
2022-09-12T11:07:04.086Z,2.28
2022-09-12T11:10:37.366Z,2.10
2022-09-12T11:13:56.948Z,2.20
2022-09-12T11:17:04.453Z,2.08
2022-09-12T11:20:48.668Z,4.25
2022-09-12T11:24:09.846Z,2.33
2022-09-12T11:27:39.753Z,2.25
2022-09-12T11:30:52.369Z,2.38
2022-09-12T11:33:58.405Z,2.08
2022-09-12T11:37:35.337Z,2.38
2022-09-12T11:40:40.182Z,2.38
2022-09-12T11:43:52.251Z,2.53
2022-09-12T11:46:55.269Z,2.10
2022-09-12T11:50:00.236Z,3.03
2022-09-12T11:53:20.770Z,2.03
2022-09-12T11:56:23.403Z,2.10
2022-09-12T11:59:32.114Z,2.08
2022-09-12T12:03:10.729Z,2.35
2022-09-12T12:06:23.496Z,2.17
2022-09-12T12:09:27.080Z,2.30
2022-09-12T12:12:30.294Z,2.67
2022-09-12T12:15:36.450Z,2.22
2022-09-12T12:18:40.240Z,2.70
2022-09-12T12:21:47.823Z,2.42
2022-09-12T12:25:21.569Z,2.10
2022-09-12T12:28:58.899Z,2.00
2022-09-12T12:32:07.863Z,2.00
2022-09-12T12:35:36.643Z,2.08
2022-09-12T12:38:41.055Z,2.17
2022-09-12T12:41:44.634Z,2.10
2022-09-12T12:44:49.065Z,2.10
2022-09-12T12:47:58.384Z,2.20
2022-09-12T12:51:38.656Z,2.10
2022-09-12T12:54:41.433Z,2.25
2022-09-12T12:57:55.856Z,1.90
2022-09-12T13:01:15.976Z,1.85
2022-09-12T13:04:21.288Z,1.80
2022-09-12T13:07:37.344Z,2.13
2022-09-12T13:10:50.544Z,2.10
2022-09-12T13:14:32.338Z,1.80
2022-09-12T13:17:39.889Z,1.80
2022-09-12T13:21:10.474Z,1.75
2022-09-12T13:24:17.484Z,1.85
2022-09-12T13:27:25.926Z,2.00
2022-09-12T13:30:31.814Z,1.50
2022-09-12T13:33:40.294Z,1.60
2022-09-12T13:37:10.221Z,1.67
2022-09-12T13:40:12.442Z,1.90
2022-09-12T13:43:17.581Z,1.60
2022-09-12T13:46:35.063Z,1.67
2022-09-12T13:49:40.873Z,1.50
2022-09-12T13:52:47.996Z,1.75
2022-09-12T13:56:00.547Z,1.33
2022-09-12T13:59:03.510Z,1.63
2022-09-12T14:02:24.217Z,1.48
2022-09-12T14:05:26.885Z,1.65
2022-09-12T14:08:30.507Z,1.65
2022-09-12T14:11:34.450Z,1.45
2022-09-12T14:14:44.300Z,1.50
2022-09-12T14:17:53.263Z,1.65
2022-09-12T14:20:57.611Z,1.70
2022-09-12T14:24:04.896Z,1.58
2022-09-12T14:27:07.633Z,1.30
2022-09-12T14:30:32.028Z,1.63
2022-09-12T14:33:48.727Z,1.70
2022-09-12T14:36:56.435Z,1.40
2022-09-12T14:40:00.649Z,1.60
2022-09-12T14:43:03.674Z,1.60
2022-09-12T14:46:37.056Z,1.42
2022-09-12T14:49:40.839Z,1.50
2022-09-12T14:52:44.012Z,1.52
2022-09-12T14:55:56.408Z,1.57
2022-09-12T14:59:33.594Z,1.33
2022-09-12T15:02:36.228Z,1.20
2022-09-12T15:05:50.076Z,1.52
2022-09-12T15:08:55.581Z,1.30
2022-09-12T15:11:58.321Z,1.30
2022-09-12T15:15:21.692Z,1.40
2022-09-12T15:18:26.477Z,1.30
2022-09-12T15:21:28.833Z,1.20
2022-09-12T15:24:31.326Z,1.50
2022-09-12T15:27:34.324Z,1.30
2022-09-12T15:30:37.337Z,1.40
2022-09-12T15:33:41.380Z,1.40
2022-09-12T15:36:44.574Z,1.50
2022-09-12T15:39:48.997Z,1.40
2022-09-12T15:42:51.224Z,1.55
2022-09-12T15:45:57.805Z,1.30
2022-09-12T15:49:00.888Z,1.60
2022-09-12T15:52:04.325Z,1.30
2022-09-12T15:55:12.500Z,1.33
2022-09-12T15:58:15.118Z,1.30
2022-09-12T16:01:18.658Z,1.50
2022-09-12T16:04:24.213Z,1.70
2022-09-12T16:07:35.186Z,1.52
2022-09-12T16:10:38.036Z,1.75
2022-09-12T16:13:40.459Z,1.50
2022-09-12T16:16:43.589Z,2.20
2022-09-12T16:19:46.461Z,1.58
2022-09-12T16:26:04.457Z,1.63
2022-09-12T16:29:07.717Z,1.77
2022-09-12T16:32:10.252Z,1.75
2022-09-12T16:35:13.688Z,1.60
2022-09-12T16:38:17.657Z,1.73
2022-09-12T16:44:36.852Z,1.45
2022-09-12T16:47:39.618Z,1.67
2022-09-12T16:50:41.827Z,1.70
2022-09-12T16:54:01.652Z,1.80
2022-09-12T16:57:05.657Z,1.30
2022-09-12T17:00:10.168Z,1.60
2022-09-12T17:03:12.613Z,1.67
2022-09-12T17:06:18.664Z,1.27
2022-09-12T17:09:22.263Z,1.50
2022-09-12T17:12:24.775Z,1.40
2022-09-12T17:15:26.898Z,1.70
2022-09-12T17:18:29.423Z,1.30
2022-09-12T17:21:32.899Z,1.42
2022-09-12T17:24:35.985Z,1.48
2022-09-12T17:27:38.351Z,1.50
2022-09-12T17:31:00.545Z,2.08
2022-09-12T17:34:42.682Z,2.92
2022-09-12T17:38:25.401Z,3.85
2022-09-12T17:41:46.539Z,4.20
2022-09-12T17:44:50.051Z,4.13
2022-09-12T17:47:55.287Z,5.00
2022-09-12T17:51:10.506Z,4.15
2022-09-12T17:54:17.943Z,4.65
2022-09-12T17:57:24.155Z,4.25
2022-09-12T18:00:48.558Z,4.03
2022-09-12T18:07:00.636Z,3.05
2022-09-12T18:13:09.498Z,2.20
2022-09-12T18:16:13.859Z,1.45
2022-09-12T18:19:19.048Z,1.50
2022-09-12T18:22:22.106Z,2.40
2022-09-12T18:25:27.576Z,1.90
2022-09-12T18:28:33.131Z,1.73
2022-09-12T18:35:37.976Z,1.73
2022-09-12T18:39:02.209Z,1.70
2022-09-12T18:42:17.546Z,1.60
2022-09-12T18:45:28.036Z,2.28
2022-09-12T18:48:39.886Z,1.83
2022-09-12T18:51:42.728Z,1.60
2022-09-12T18:54:46.576Z,1.63
2022-09-12T18:57:54.496Z,2.22
2022-09-12T19:01:00.199Z,1.80
2022-09-12T19:04:06.925Z,2.07
2022-09-12T19:07:10.887Z,1.92
2022-09-12T19:10:14.350Z,1.98
2022-09-12T19:13:19.416Z,1.75
2022-09-12T19:16:24.994Z,2.00
2022-09-12T19:19:27.695Z,2.00
2022-09-12T19:22:29.959Z,2.00
2022-09-12T19:25:32.656Z,1.92
2022-09-12T19:28:35.521Z,1.67
2022-09-12T19:31:38.368Z,2.13
2022-09-12T19:34:40.483Z,2.55
2022-09-12T19:37:44.433Z,2.67
2022-09-12T19:40:59.333Z,2.05
2022-09-12T19:44:02.706Z,1.90
2022-09-12T19:47:05.077Z,2.42
2022-09-12T19:50:08.754Z,2.20
2022-09-12T19:53:11.631Z,2.45
2022-09-12T19:56:15.145Z,2.08
2022-09-12T19:59:18.588Z,2.25
2022-09-12T20:02:29.378Z,1.70
2022-09-12T20:05:42.620Z,2.05
2022-09-12T20:08:47.545Z,2.70
2022-09-12T20:11:50.869Z,2.35
2022-09-12T20:14:54.023Z,1.85
2022-09-12T20:17:57.794Z,2.10
2022-09-12T20:21:18.711Z,2.33
2022-09-12T20:24:21.422Z,2.10
2022-09-12T20:27:24.188Z,2.13
2022-09-12T20:30:28.704Z,2.15
2022-09-12T20:33:35.993Z,2.10
2022-09-12T20:36:39.718Z,2.00
2022-09-12T20:39:44.511Z,2.57
2022-09-12T20:42:52.465Z,2.45
2022-09-12T20:45:57.859Z,2.50
2022-09-12T20:49:00.123Z,2.35
2022-09-12T20:52:03.838Z,2.65
2022-09-12T20:55:06.813Z,2.30
2022-09-12T20:58:10.034Z,2.20
2022-09-12T21:01:15.093Z,2.38
2022-09-12T21:04:18.569Z,1.95
2022-09-12T21:07:26.002Z,2.42
2022-09-12T21:10:33.344Z,2.30
2022-09-12T21:13:36.772Z,2.58
2022-09-12T21:16:39.477Z,2.50
2022-09-12T21:19:43.913Z,1.95
2022-09-12T21:22:47.083Z,2.10
2022-09-12T21:25:52.698Z,2.40
2022-09-12T21:28:56.905Z,2.15
2022-09-12T21:32:02.134Z,2.08
2022-09-12T21:35:06.702Z,1.92
2022-09-12T21:41:15.699Z,2.08
2022-09-12T21:44:18.287Z,2.10
2022-09-12T21:47:21.094Z,2.00
2022-09-12T21:50:24.046Z,1.63
2022-09-12T21:53:27.554Z,2.37
2022-09-12T21:56:29.670Z,2.05
2022-09-12T21:59:32.498Z,2.22
2022-09-12T22:02:34.739Z,1.88
2022-09-12T22:05:40.282Z,1.88
2022-09-12T22:08:42.494Z,1.83
2022-09-12T22:11:46.276Z,2.13
2022-09-12T22:14:48.787Z,2.10
2022-09-12T22:17:52.070Z,2.13
2022-09-12T22:21:02.017Z,1.95
2022-09-12T22:24:23.316Z,2.20
2022-09-12T22:27:25.939Z,1.67
2022-09-12T22:30:29.246Z,4.00
2022-09-12T22:33:31.249Z,2.00
2022-09-12T22:36:38.268Z,2.22
2022-09-12T22:39:41.262Z,1.65
2022-09-12T22:42:43.692Z,2.55
2022-09-12T22:45:45.723Z,2.88
2022-09-12T22:48:48.746Z,6.93
2022-09-12T22:51:51.007Z,6.47
2022-09-12T22:54:53.874Z,3.88
2022-09-12T22:57:56.554Z,6.57
2022-09-12T23:01:00.234Z,5.20
2022-09-12T23:04:05.641Z,7.07
2022-09-12T23:07:08.209Z,6.15
2022-09-12T23:10:10.949Z,8.05
2022-09-12T23:13:13.911Z,7.07
2022-09-12T23:16:20.910Z,6.88
2022-09-12T23:19:23.558Z,2.65
2022-09-12T23:22:25.811Z,3.00
2022-09-12T23:25:28.647Z,2.38
2022-09-12T23:28:30.900Z,2.80
2022-09-12T23:31:34.805Z,2.40
2022-09-12T23:34:36.862Z,3.70
2022-09-12T23:37:39.585Z,6.07
2022-09-12T23:40:41.884Z,4.18
2022-09-12T23:43:45.814Z,2.40
2022-09-12T23:46:48.260Z,8.30
2022-09-12T23:49:50.815Z,10.40
2022-09-12T23:52:52.906Z,10.25
2022-09-12T23:55:55.724Z,12.68
2022-09-12T23:58:57.838Z,14.27
